Hauptseite
METAR-TAF:

METAR-TAF

Flughäfen :

Leipzig-Altenburg Airport

Altenburg, Deutschland

Breite: 50-58N, Länge: 012-30E, Höhe: 195 m

Beobachtung

Neuester Wetterbericht von vor 30 Minuten, um 07:50 UTC
Wind 4 kt aus West/Nordwest, variierte zwischen West und Nord/Nordost
Temperatur 19°C
Luftfeuchtigkeit 64%
Luftdruck 1014 hPa
Sichtweite 10 km oder mehr
keine Wolken unter 1500 m und keine Kumulonimbus oder Gewitterwolken

METAR: EDAC 220750Z 30004KT 270V020 CAVOK 19/12 Q1014

Zeit: 10:20 (08:20 UTC)

Prognose

Neuester Wetterbericht von vor 38 Minuten, um 07:42 UTC
Gültige Prognose vom 22 um 08 UTC bis 22 um 15 UTC
Wind 3 kt aus unterschiedlichen Richtungen
Sichtweite 10 km oder mehr
keine Wolken unter 1500 m und keine Kumulonimbus oder Gewitterwolken
Übergehend zu
vom 22 um 08 UTC bis 22 um 10 UTC
Wind 8 kt aus Nordost

TAF: EDAC 220742Z 2208/2215 VRB03KT CAVOK BECMG 2208/2210 05008KT

Wetterbeobachtungen und Prognosen von mehr als 4000 Flughäfen (METAR und TAF Bericht).

Die verfügbaren Stationen werden durch gelbe und rote Markierungen auf der Karte dargestellt.

Führen Sie die Maus auf sie, um den Namen der Station zu sehen.

Darauf klicken, um die Beobachtung von Wetterbeobachtungen und Prognosen zu sehen.

Um die Karte zu ändern : klicken Sie auf den grünen Tasten mit einem schwarzen Kreuz Zum Vergrößern, auf den grünen Button mit einem Gedankenstrich zu verkleinern, oder auf die grünen Pfeile für benachbarte Karten.


METAR-TAF: